sensor_id;sensor_type;location;lat;lon;timestamp;temperature;humidity
7942;HTU21D;4016;50.758;7.150;2023-04-15T00:03:23;4.72;118.99
7942;HTU21D;4016;50.758;7.150;2023-04-15T00:08:24;4.62;118.99
7942;HTU21D;4016;50.758;7.150;2023-04-15T00:13:24;4.48;118.99
7942;HTU21D;4016;50.758;7.150;2023-04-15T00:18:25;4.36;118.99
7942;HTU21D;4016;50.758;7.150;2023-04-15T00:23:26;4.30;118.99
7942;HTU21D;4016;50.758;7.150;2023-04-15T00:28:26;4.27;118.99
7942;HTU21D;4016;50.758;7.150;2023-04-15T00:33:27;4.23;118.99
7942;HTU21D;4016;50.758;7.150;2023-04-15T00:38:27;4.15;118.99
7942;HTU21D;4016;50.758;7.150;2023-04-15T00:43:28;4.06;118.99
7942;HTU21D;4016;50.758;7.150;2023-04-15T00:48:28;4.02;118.99
7942;HTU21D;4016;50.758;7.150;2023-04-15T00:53:29;3.94;118.99
7942;HTU21D;4016;50.758;7.150;2023-04-15T00:58:29;3.92;118.99
7942;HTU21D;4016;50.758;7.150;2023-04-15T01:03:30;3.95;118.99
7942;HTU21D;4016;50.758;7.150;2023-04-15T01:08:30;3.75;118.99
7942;HTU21D;4016;50.758;7.150;2023-04-15T01:13:32;3.65;118.99
7942;HTU21D;4016;50.758;7.150;2023-04-15T01:18:34;3.53;118.99
7942;HTU21D;4016;50.758;7.150;2023-04-15T01:23:36;3.43;118.99
7942;HTU21D;4016;50.758;7.150;2023-04-15T01:28:37;3.48;118.99
7942;HTU21D;4016;50.758;7.150;2023-04-15T01:33:39;3.50;118.99
7942;HTU21D;4016;50.758;7.150;2023-04-15T01:38:40;3.38;118.99
7942;HTU21D;4016;50.758;7.150;2023-04-15T01:43:40;3.28;118.99
7942;HTU21D;4016;50.758;7.150;2023-04-15T01:48:41;3.21;118.99
7942;HTU21D;4016;50.758;7.150;2023-04-15T01:53:41;3.26;118.99
7942;HTU21D;4016;50.758;7.150;2023-04-15T01:58:42;3.08;118.99
7942;HTU21D;4016;50.758;7.150;2023-04-15T02:03:42;3.04;118.99
7942;HTU21D;4016;50.758;7.150;2023-04-15T02:08:43;3.09;118.99
7942;HTU21D;4016;50.758;7.150;2023-04-15T02:13:43;2.95;118.99
7942;HTU21D;4016;50.758;7.150;2023-04-15T02:18:45;2.84;118.99
7942;HTU21D;4016;50.758;7.150;2023-04-15T02:23:46;2.71;118.99
7942;HTU21D;4016;50.758;7.150;2023-04-15T02:28:48;2.69;118.99
7942;HTU21D;4016;50.758;7.150;2023-04-15T02:33:50;2.73;118.99
7942;HTU21D;4016;50.758;7.150;2023-04-15T02:38:51;2.61;118.99
7942;HTU21D;4016;50.758;7.150;2023-04-15T02:43:51;2.52;118.99
7942;HTU21D;4016;50.758;7.150;2023-04-15T02:48:52;2.43;118.99
7942;HTU21D;4016;50.758;7.150;2023-04-15T02:53:53;2.44;118.99
7942;HTU21D;4016;50.758;7.150;2023-04-15T02:58:53;2.41;118.99
7942;HTU21D;4016;50.758;7.150;2023-04-15T03:03:55;2.31;118.99
7942;HTU21D;4016;50.758;7.150;2023-04-15T03:08:55;2.32;118.99
7942;HTU21D;4016;50.758;7.150;2023-04-15T03:13:56;2.26;118.99
7942;HTU21D;4016;50.758;7.150;2023-04-15T03:18:57;2.43;118.99
7942;HTU21D;4016;50.758;7.150;2023-04-15T03:23:58;2.31;118.99
7942;HTU21D;4016;50.758;7.150;2023-04-15T03:28:58;2.24;118.99
7942;HTU21D;4016;50.758;7.150;2023-04-15T03:33:58;2.20;118.99
7942;HTU21D;4016;50.758;7.150;2023-04-15T03:38:59;2.12;118.99
7942;HTU21D;4016;50.758;7.150;2023-04-15T03:44:01;2.03;118.99
7942;HTU21D;4016;50.758;7.150;2023-04-15T03:49:01;2.06;118.99
7942;HTU21D;4016;50.758;7.150;2023-04-15T03:54:02;2.08;118.99
7942;HTU21D;4016;50.758;7.150;2023-04-15T03:59:02;2.01;118.99
7942;HTU21D;4016;50.758;7.150;2023-04-15T04:04:03;1.96;118.99
7942;HTU21D;4016;50.758;7.150;2023-04-15T04:09:03;1.92;118.99
7942;HTU21D;4016;50.758;7.150;2023-04-15T04:14:03;1.84;118.99
7942;HTU21D;4016;50.758;7.150;2023-04-15T04:19:04;1.81;118.99
7942;HTU21D;4016;50.758;7.150;2023-04-15T04:24:05;1.73;118.99
7942;HTU21D;4016;50.758;7.150;2023-04-15T04:29:05;1.72;118.99
7942;HTU21D;4016;50.758;7.150;2023-04-15T04:34:06;1.72;118.99
7942;HTU21D;4016;50.758;7.150;2023-04-15T04:39:06;1.85;118.99
7942;HTU21D;4016;50.758;7.150;2023-04-15T04:44:07;1.73;118.99
7942;HTU21D;4016;50.758;7.150;2023-04-15T04:49:07;1.76;118.99
7942;HTU21D;4016;50.758;7.150;2023-04-15T04:54:08;1.68;118.99
7942;HTU21D;4016;50.758;7.150;2023-04-15T04:59:08;1.56;118.99
7942;HTU21D;4016;50.758;7.150;2023-04-15T05:04:09;1.57;118.99
7942;HTU21D;4016;50.758;7.150;2023-04-15T05:09:09;1.67;118.99
7942;HTU21D;4016;50.758;7.150;2023-04-15T05:14:10;1.73;118.99
7942;HTU21D;4016;50.758;7.150;2023-04-15T05:19:10;1.76;118.99
7942;HTU21D;4016;50.758;7.150;2023-04-15T05:24:10;1.79;118.99
7942;HTU21D;4016;50.758;7.150;2023-04-15T05:29:11;1.92;118.99
7942;HTU21D;4016;50.758;7.150;2023-04-15T05:34:11;2.09;118.99
7942;HTU21D;4016;50.758;7.150;2023-04-15T05:39:12;2.25;118.99
7942;HTU21D;4016;50.758;7.150;2023-04-15T05:44:12;2.44;118.99
7942;HTU21D;4016;50.758;7.150;2023-04-15T05:49:13;2.70;118.99
7942;HTU21D;4016;50.758;7.150;2023-04-15T05:54:13;3.12;118.99
7942;HTU21D;4016;50.758;7.150;2023-04-15T05:59:13;3.44;118.99
7942;HTU21D;4016;50.758;7.150;2023-04-15T06:04:14;3.90;118.99
7942;HTU21D;4016;50.758;7.150;2023-04-15T06:09:14;4.34;118.99
7942;HTU21D;4016;50.758;7.150;2023-04-15T06:14:15;4.54;118.99
7942;HTU21D;4016;50.758;7.150;2023-04-15T06:19:16;4.67;118.99
7942;HTU21D;4016;50.758;7.150;2023-04-15T06:24:17;4.71;118.99
7942;HTU21D;4016;50.758;7.150;2023-04-15T06:29:17;4.89;118.99
7942;HTU21D;4016;50.758;7.150;2023-04-15T06:34:18;5.12;118.99
7942;HTU21D;4016;50.758;7.150;2023-04-15T06:39:18;5.47;118.99
7942;HTU21D;4016;50.758;7.150;2023-04-15T06:44:18;5.80;118.99
7942;HTU21D;4016;50.758;7.150;2023-04-15T06:49:19;6.16;118.99
7942;HTU21D;4016;50.758;7.150;2023-04-15T06:54:20;6.75;118.99
7942;HTU21D;4016;50.758;7.150;2023-04-15T06:59:20;7.37;115.10
7942;HTU21D;4016;50.758;7.150;2023-04-15T07:04:20;7.85;111.07
7942;HTU21D;4016;50.758;7.150;2023-04-15T07:09:22;8.33;108.33
7942;HTU21D;4016;50.758;7.150;2023-04-15T07:14:22;8.82;106.72
7942;HTU21D;4016;50.758;7.150;2023-04-15T07:19:23;9.30;105.52
7942;HTU21D;4016;50.758;7.150;2023-04-15T07:24:23;9.79;102.06
7942;HTU21D;4016;50.758;7.150;2023-04-15T07:29:25;10.23;100.36
7942;HTU21D;4016;50.758;7.150;2023-04-15T07:34:26;10.58;95.97
7942;HTU21D;4016;50.758;7.150;2023-04-15T07:39:26;10.73;95.30
7942;HTU21D;4016;50.758;7.150;2023-04-15T07:44:28;10.74;95.05
7942;HTU21D;4016;50.758;7.150;2023-04-15T07:49:29;10.99;95.35
7942;HTU21D;4016;50.758;7.150;2023-04-15T07:54:29;11.54;91.64
7942;HTU21D;4016;50.758;7.150;2023-04-15T07:59:30;11.52;95.33
7942;HTU21D;4016;50.758;7.150;2023-04-15T08:04:32;11.91;94.44
7942;HTU21D;4016;50.758;7.150;2023-04-15T08:09:33;12.56;89.78
7942;HTU21D;4016;50.758;7.150;2023-04-15T08:14:34;12.49;89.05
7942;HTU21D;4016;50.758;7.150;2023-04-15T08:19:34;12.88;86.09
7942;HTU21D;4016;50.758;7.150;2023-04-15T08:24:34;12.86;87.73
7942;HTU21D;4016;50.758;7.150;2023-04-15T08:29:35;12.95;90.91
7942;HTU21D;4016;50.758;7.150;2023-04-15T08:34:36;13.07;84.43
7942;HTU21D;4016;50.758;7.150;2023-04-15T08:39:36;13.23;86.45
7942;HTU21D;4016;50.758;7.150;2023-04-15T08:44:37;13.25;79.25
7942;HTU21D;4016;50.758;7.150;2023-04-15T08:49:40;13.43;86.19
7942;HTU21D;4016;50.758;7.150;2023-04-15T08:54:42;13.80;83.52
7942;HTU21D;4016;50.758;7.150;2023-04-15T08:59:42;13.70;65.40
7942;HTU21D;4016;50.758;7.150;2023-04-15T09:04:43;13.85;58.83
7942;HTU21D;4016;50.758;7.150;2023-04-15T09:09:44;14.09;58.88
7942;HTU21D;4016;50.758;7.150;2023-04-15T09:14:45;14.47;56.90
7942;HTU21D;4016;50.758;7.150;2023-04-15T09:19:47;14.66;56.01
7942;HTU21D;4016;50.758;7.150;2023-04-15T09:24:47;14.52;53.91
7942;HTU21D;4016;50.758;7.150;2023-04-15T09:29:52;14.51;55.52
7942;HTU21D;4016;50.758;7.150;2023-04-15T09:34:53;14.27;54.21
7942;HTU21D;4016;50.758;7.150;2023-04-15T09:39:53;14.67;55.12
7942;HTU21D;4016;50.758;7.150;2023-04-15T09:44:54;14.86;54.19
7942;HTU21D;4016;50.758;7.150;2023-04-15T09:49:56;14.81;53.52
7942;HTU21D;4016;50.758;7.150;2023-04-15T09:54:57;14.93;52.22
7942;HTU21D;4016;50.758;7.150;2023-04-15T09:59:58;15.12;52.70
7942;HTU21D;4016;50.758;7.150;2023-04-15T10:04:59;15.37;50.02
7942;HTU21D;4016;50.758;7.150;2023-04-15T10:10:00;15.21;51.53
7942;HTU21D;4016;50.758;7.150;2023-04-15T10:15:03;15.29;50.87
7942;HTU21D;4016;50.758;7.150;2023-04-15T10:20:05;15.46;52.86
7942;HTU21D;4016;50.758;7.150;2023-04-15T10:25:06;15.70;52.69
7942;HTU21D;4016;50.758;7.150;2023-04-15T10:30:07;15.57;55.01
7942;HTU21D;4016;50.758;7.150;2023-04-15T10:35:08;15.46;55.26
7942;HTU21D;4016;50.758;7.150;2023-04-15T10:45:27;15.00;53.04
7942;HTU21D;4016;50.758;7.150;2023-04-15T10:50:30;15.08;57.58
7942;HTU21D;4016;50.758;7.150;2023-04-15T10:55:32;15.52;56.89
7942;HTU21D;4016;50.758;7.150;2023-04-15T11:00:36;15.48;54.62
7942;HTU21D;4016;50.758;7.150;2023-04-15T11:05:49;15.38;58.38
7942;HTU21D;4016;50.758;7.150;2023-04-15T11:10:51;15.49;59.03
7942;HTU21D;4016;50.758;7.150;2023-04-15T11:15:55;15.14;62.10
7942;HTU21D;4016;50.758;7.150;2023-04-15T11:20:59;14.89;62.47
7942;HTU21D;4016;50.758;7.150;2023-04-15T11:26:04;15.23;62.29
7942;HTU21D;4016;50.758;7.150;2023-04-15T11:31:16;15.51;59.39
7942;HTU21D;4016;50.758;7.150;2023-04-15T11:36:19;14.88;63.13
7942;HTU21D;4016;50.758;7.150;2023-04-15T11:41:20;14.84;63.19
7942;HTU21D;4016;50.758;7.150;2023-04-15T11:46:28;14.92;64.38
7942;HTU21D;4016;50.758;7.150;2023-04-15T11:51:33;14.83;63.73
7942;HTU21D;4016;50.758;7.150;2023-04-15T11:56:34;14.64;61.59
7942;HTU21D;4016;50.758;7.150;2023-04-15T12:01:36;14.66;64.33
7942;HTU21D;4016;50.758;7.150;2023-04-15T12:06:38;14.66;64.76
7942;HTU21D;4016;50.758;7.150;2023-04-15T12:11:42;14.40;66.91
7942;HTU21D;4016;50.758;7.150;2023-04-15T12:16:47;14.26;69.37
7942;HTU21D;4016;50.758;7.150;2023-04-15T12:21:48;13.93;68.03
7942;HTU21D;4016;50.758;7.150;2023-04-15T12:26:54;13.89;70.29
7942;HTU21D;4016;50.758;7.150;2023-04-15T12:31:58;13.80;72.13
7942;HTU21D;4016;50.758;7.150;2023-04-15T12:37:04;13.56;74.28
7942;HTU21D;4016;50.758;7.150;2023-04-15T12:42:05;13.60;73.62
7942;HTU21D;4016;50.758;7.150;2023-04-15T12:47:07;13.31;74.28
7942;HTU21D;4016;50.758;7.150;2023-04-15T12:52:08;13.12;75.84
7942;HTU21D;4016;50.758;7.150;2023-04-15T12:57:09;13.18;77.37
7942;HTU21D;4016;50.758;7.150;2023-04-15T13:02:09;12.94;78.61
7942;HTU21D;4016;50.758;7.150;2023-04-15T13:07:10;12.94;81.60
7942;HTU21D;4016;50.758;7.150;2023-04-15T13:12:12;12.93;81.43
7942;HTU21D;4016;50.758;7.150;2023-04-15T13:17:13;12.56;89.99
7942;HTU21D;4016;50.758;7.150;2023-04-15T13:22:14;12.58;91.53
7942;HTU21D;4016;50.758;7.150;2023-04-15T13:27:15;12.66;89.69
7942;HTU21D;4016;50.758;7.150;2023-04-15T13:32:15;12.60;92.05
7942;HTU21D;4016;50.758;7.150;2023-04-15T13:37:16;12.73;89.95
7942;HTU21D;4016;50.758;7.150;2023-04-15T13:42:16;12.62;93.59
7942;HTU21D;4016;50.758;7.150;2023-04-15T13:47:18;12.48;95.63
7942;HTU21D;4016;50.758;7.150;2023-04-15T13:52:18;12.37;96.29
7942;HTU21D;4016;50.758;7.150;2023-04-15T13:57:19;12.10;100.75
7942;HTU21D;4016;50.758;7.150;2023-04-15T14:02:20;12.33;100.46
7942;HTU21D;4016;50.758;7.150;2023-04-15T14:07:22;12.14;101.35
7942;HTU21D;4016;50.758;7.150;2023-04-15T14:12:22;12.14;102.88
7942;HTU21D;4016;50.758;7.150;2023-04-15T14:17:22;12.14;103.07
7942;HTU21D;4016;50.758;7.150;2023-04-15T14:22:23;12.14;103.38
7942;HTU21D;4016;50.758;7.150;2023-04-15T14:27:23;12.11;103.77
7942;HTU21D;4016;50.758;7.150;2023-04-15T14:32:24;12.25;102.91
7942;HTU21D;4016;50.758;7.150;2023-04-15T14:37:26;12.10;106.58
7942;HTU21D;4016;50.758;7.150;2023-04-15T14:42:26;12.18;105.82
7942;HTU21D;4016;50.758;7.150;2023-04-15T14:47:26;12.22;105.98
7942;HTU21D;4016;50.758;7.150;2023-04-15T14:52:27;12.34;104.02
7942;HTU21D;4016;50.758;7.150;2023-04-15T14:57:27;12.21;102.72
7942;HTU21D;4016;50.758;7.150;2023-04-15T15:02:28;12.11;103.66
7942;HTU21D;4016;50.758;7.150;2023-04-15T15:07:28;12.07;104.42
7942;HTU21D;4016;50.758;7.150;2023-04-15T15:12:28;11.81;107.97
7942;HTU21D;4016;50.758;7.150;2023-04-15T15:17:29;11.76;108.05
7942;HTU21D;4016;50.758;7.150;2023-04-15T15:22:30;11.68;110.87
7942;HTU21D;4016;50.758;7.150;2023-04-15T15:27:30;11.73;109.92
7942;HTU21D;4016;50.758;7.150;2023-04-15T15:32:31;11.56;114.32
7942;HTU21D;4016;50.758;7.150;2023-04-15T15:37:32;11.55;112.07
7942;HTU21D;4016;50.758;7.150;2023-04-15T15:42:33;11.33;116.10
7942;HTU21D;4016;50.758;7.150;2023-04-15T15:47:33;11.24;117.32
7942;HTU21D;4016;50.758;7.150;2023-04-15T15:52:34;11.45;117.32
7942;HTU21D;4016;50.758;7.150;2023-04-15T15:57:34;11.28;118.33
7942;HTU21D;4016;50.758;7.150;2023-04-15T16:02:35;11.14;118.99
7942;HTU21D;4016;50.758;7.150;2023-04-15T16:07:36;11.13;118.99
7942;HTU21D;4016;50.758;7.150;2023-04-15T16:12:36;11.07;118.99
7942;HTU21D;4016;50.758;7.150;2023-04-15T16:17:37;11.08;117.78
7942;HTU21D;4016;50.758;7.150;2023-04-15T16:22:37;10.84;118.99
7942;HTU21D;4016;50.758;7.150;2023-04-15T16:27:38;10.86;118.99
7942;HTU21D;4016;50.758;7.150;2023-04-15T16:32:39;10.75;118.95
7942;HTU21D;4016;50.758;7.150;2023-04-15T16:37:39;10.80;118.99
7942;HTU21D;4016;50.758;7.150;2023-04-15T16:42:39;10.56;118.88
7942;HTU21D;4016;50.758;7.150;2023-04-15T16:47:42;10.55;117.95
7942;HTU21D;4016;50.758;7.150;2023-04-15T16:52:43;10.36;118.99
7942;HTU21D;4016;50.758;7.150;2023-04-15T16:57:43;10.54;118.99
7942;HTU21D;4016;50.758;7.150;2023-04-15T17:02:43;10.59;118.95
7942;HTU21D;4016;50.758;7.150;2023-04-15T17:07:44;10.49;118.99
7942;HTU21D;4016;50.758;7.150;2023-04-15T17:12:44;10.29;118.99
7942;HTU21D;4016;50.758;7.150;2023-04-15T17:17:45;10.20;118.99
7942;HTU21D;4016;50.758;7.150;2023-04-15T17:22:46;10.23;118.99
7942;HTU21D;4016;50.758;7.150;2023-04-15T17:27:47;10.08;118.99
7942;HTU21D;4016;50.758;7.150;2023-04-15T17:32:48;10.01;118.99
7942;HTU21D;4016;50.758;7.150;2023-04-15T17:37:48;9.98;118.99
7942;HTU21D;4016;50.758;7.150;2023-04-15T17:42:49;10.03;118.99
7942;HTU21D;4016;50.758;7.150;2023-04-15T17:47:49;10.06;118.99
7942;HTU21D;4016;50.758;7.150;2023-04-15T17:52:49;9.95;118.99
7942;HTU21D;4016;50.758;7.150;2023-04-15T17:57:50;9.92;118.99
7942;HTU21D;4016;50.758;7.150;2023-04-15T18:02:51;9.89;118.99
7942;HTU21D;4016;50.758;7.150;2023-04-15T18:07:51;9.93;118.99
7942;HTU21D;4016;50.758;7.150;2023-04-15T18:12:52;10.10;118.99
7942;HTU21D;4016;50.758;7.150;2023-04-15T18:17:52;9.92;118.99
7942;HTU21D;4016;50.758;7.150;2023-04-15T18:22:53;9.96;118.99
7942;HTU21D;4016;50.758;7.150;2023-04-15T18:27:54;9.79;118.99
7942;HTU21D;4016;50.758;7.150;2023-04-15T18:32:55;9.64;118.99
7942;HTU21D;4016;50.758;7.150;2023-04-15T18:37:56;9.71;118.99
7942;HTU21D;4016;50.758;7.150;2023-04-15T18:42:57;9.66;118.99
7942;HTU21D;4016;50.758;7.150;2023-04-15T18:47:58;9.67;118.99
7942;HTU21D;4016;50.758;7.150;2023-04-15T18:52:58;9.60;118.99
7942;HTU21D;4016;50.758;7.150;2023-04-15T18:57:58;9.56;118.99
7942;HTU21D;4016;50.758;7.150;2023-04-15T19:02:59;9.57;118.99
7942;HTU21D;4016;50.758;7.150;2023-04-15T19:07:59;9.61;118.99
7942;HTU21D;4016;50.758;7.150;2023-04-15T19:13:00;9.54;118.99
7942;HTU21D;4016;50.758;7.150;2023-04-15T19:18:00;9.35;118.99
7942;HTU21D;4016;50.758;7.150;2023-04-15T19:23:01;9.33;118.99
7942;HTU21D;4016;50.758;7.150;2023-04-15T19:28:01;9.16;118.99
7942;HTU21D;4016;50.758;7.150;2023-04-15T19:33:01;9.09;118.99
7942;HTU21D;4016;50.758;7.150;2023-04-15T19:38:03;9.02;118.99
7942;HTU21D;4016;50.758;7.150;2023-04-15T19:43:03;9.14;118.99
7942;HTU21D;4016;50.758;7.150;2023-04-15T19:48:03;9.10;118.99
7942;HTU21D;4016;50.758;7.150;2023-04-15T19:53:05;9.23;118.99
7942;HTU21D;4016;50.758;7.150;2023-04-15T19:58:05;9.11;118.99
7942;HTU21D;4016;50.758;7.150;2023-04-15T20:03:05;9.10;118.99
7942;HTU21D;4016;50.758;7.150;2023-04-15T20:08:06;8.92;118.99
7942;HTU21D;4016;50.758;7.150;2023-04-15T20:13:07;9.03;118.99
7942;HTU21D;4016;50.758;7.150;2023-04-15T20:18:07;8.92;118.99
7942;HTU21D;4016;50.758;7.150;2023-04-15T20:23:08;8.97;118.99
7942;HTU21D;4016;50.758;7.150;2023-04-15T20:28:08;8.94;118.99
7942;HTU21D;4016;50.758;7.150;2023-04-15T20:33:10;8.94;118.99
7942;HTU21D;4016;50.758;7.150;2023-04-15T20:38:10;8.86;118.99
7942;HTU21D;4016;50.758;7.150;2023-04-15T20:43:12;8.88;118.99
7942;HTU21D;4016;50.758;7.150;2023-04-15T20:48:12;8.71;118.99
7942;HTU21D;4016;50.758;7.150;2023-04-15T20:53:13;8.78;118.99
7942;HTU21D;4016;50.758;7.150;2023-04-15T20:58:13;8.78;118.99
7942;HTU21D;4016;50.758;7.150;2023-04-15T21:03:14;8.61;118.99
7942;HTU21D;4016;50.758;7.150;2023-04-15T21:08:14;8.55;118.99
7942;HTU21D;4016;50.758;7.150;2023-04-15T21:13:14;8.58;118.99
7942;HTU21D;4016;50.758;7.150;2023-04-15T21:18:16;8.72;118.99
7942;HTU21D;4016;50.758;7.150;2023-04-15T21:23:17;8.59;118.99
7942;HTU21D;4016;50.758;7.150;2023-04-15T21:28:17;8.55;118.99
7942;HTU21D;4016;50.758;7.150;2023-04-15T21:33:18;8.57;118.99
7942;HTU21D;4016;50.758;7.150;2023-04-15T21:38:21;8.56;118.99
7942;HTU21D;4016;50.758;7.150;2023-04-15T21:43:21;8.57;118.99
7942;HTU21D;4016;50.758;7.150;2023-04-15T21:48:24;8.53;118.99
7942;HTU21D;4016;50.758;7.150;2023-04-15T21:53:25;8.50;118.99
7942;HTU21D;4016;50.758;7.150;2023-04-15T21:58:25;8.43;118.99
7942;HTU21D;4016;50.758;7.150;2023-04-15T22:03:29;8.60;118.99
7942;HTU21D;4016;50.758;7.150;2023-04-15T22:08:32;8.55;118.99
7942;HTU21D;4016;50.758;7.150;2023-04-15T22:13:33;8.58;118.99
7942;HTU21D;4016;50.758;7.150;2023-04-15T22:18:33;8.53;118.99
7942;HTU21D;4016;50.758;7.150;2023-04-15T22:23:34;8.58;118.99
7942;HTU21D;4016;50.758;7.150;2023-04-15T22:28:35;8.51;118.99
7942;HTU21D;4016;50.758;7.150;2023-04-15T22:33:35;8.53;118.99
7942;HTU21D;4016;50.758;7.150;2023-04-15T22:38:36;8.50;118.99
7942;HTU21D;4016;50.758;7.150;2023-04-15T22:43:36;8.35;118.99
7942;HTU21D;4016;50.758;7.150;2023-04-15T22:48:36;8.47;118.99
7942;HTU21D;4016;50.758;7.150;2023-04-15T22:53:37;8.36;118.99
7942;HTU21D;4016;50.758;7.150;2023-04-15T22:58:37;8.41;118.99
7942;HTU21D;4016;50.758;7.150;2023-04-15T23:03:38;8.36;118.99
7942;HTU21D;4016;50.758;7.150;2023-04-15T23:08:38;8.35;118.99
7942;HTU21D;4016;50.758;7.150;2023-04-15T23:13:38;8.30;118.99
7942;HTU21D;4016;50.758;7.150;2023-04-15T23:18:39;8.22;118.99
7942;HTU21D;4016;50.758;7.150;2023-04-15T23:23:39;8.24;118.99
7942;HTU21D;4016;50.758;7.150;2023-04-15T23:28:40;8.14;118.99
7942;HTU21D;4016;50.758;7.150;2023-04-15T23:33:40;8.30;118.99
7942;HTU21D;4016;50.758;7.150;2023-04-15T23:38:40;8.21;118.99
7942;HTU21D;4016;50.758;7.150;2023-04-15T23:43:41;8.27;118.99
7942;HTU21D;4016;50.758;7.150;2023-04-15T23:48:41;8.28;118.99
7942;HTU21D;4016;50.758;7.150;2023-04-15T23:53:42;8.12;118.99
7942;HTU21D;4016;50.758;7.150;2023-04-15T23:58:42;8.21;118.99
